sensor_id;sensor_type;location;lat;lon;timestamp;P1;durP1;ratioP1;P2;durP2;ratioP2
46745;SDS011;32493;50.514;9.678;2022-11-20T00:00:05;42.67;;;20.60;;
46745;SDS011;32493;50.514;9.678;2022-11-20T00:04:17;40.38;;;18.95;;
46745;SDS011;32493;50.514;9.678;2022-11-20T00:06:22;42.22;;;19.23;;
46745;SDS011;32493;50.514;9.678;2022-11-20T00:08:28;42.78;;;19.38;;
46745;SDS011;32493;50.514;9.678;2022-11-20T00:10:38;43.05;;;18.95;;
46745;SDS011;32493;50.514;9.678;2022-11-20T00:12:44;45.83;;;19.10;;
46745;SDS011;32493;50.514;9.678;2022-11-20T00:14:49;47.67;;;20.73;;
46745;SDS011;32493;50.514;9.678;2022-11-20T00:16:54;46.67;;;21.30;;
46745;SDS011;32493;50.514;9.678;2022-11-20T00:19:00;54.28;;;22.60;;
46745;SDS011;32493;50.514;9.678;2022-11-20T00:21:05;53.47;;;22.15;;
46745;SDS011;32493;50.514;9.678;2022-11-20T00:23:14;49.97;;;20.73;;
46745;SDS011;32493;50.514;9.678;2022-11-20T00:25:19;53.42;;;22.10;;
46745;SDS011;32493;50.514;9.678;2022-11-20T00:27:27;50.80;;;20.05;;
46745;SDS011;32493;50.514;9.678;2022-11-20T00:29:32;44.45;;;18.25;;
46745;SDS011;32493;50.514;9.678;2022-11-20T00:31:38;43.50;;;18.13;;
46745;SDS011;32493;50.514;9.678;2022-11-20T00:33:43;42.67;;;18.38;;
46745;SDS011;32493;50.514;9.678;2022-11-20T00:35:50;47.90;;;18.40;;
46745;SDS011;32493;50.514;9.678;2022-11-20T00:37:55;47.03;;;20.00;;
46745;SDS011;32493;50.514;9.678;2022-11-20T00:40:00;46.30;;;21.40;;
46745;SDS011;32493;50.514;9.678;2022-11-20T00:42:05;48.45;;;20.17;;
46745;SDS011;32493;50.514;9.678;2022-11-20T00:44:13;48.95;;;20.88;;
46745;SDS011;32493;50.514;9.678;2022-11-20T00:46:19;50.95;;;20.48;;
46745;SDS011;32493;50.514;9.678;2022-11-20T00:48:26;51.72;;;21.13;;
46745;SDS011;32493;50.514;9.678;2022-11-20T00:50:31;47.22;;;20.25;;
46745;SDS011;32493;50.514;9.678;2022-11-20T00:52:37;49.92;;;21.15;;
46745;SDS011;32493;50.514;9.678;2022-11-20T00:54:42;46.42;;;20.52;;
46745;SDS011;32493;50.514;9.678;2022-11-20T00:56:47;48.90;;;21.95;;
46745;SDS011;32493;50.514;9.678;2022-11-20T00:58:52;49.08;;;20.48;;
46745;SDS011;32493;50.514;9.678;2022-11-20T01:01:04;47.33;;;20.30;;
46745;SDS011;32493;50.514;9.678;2022-11-20T01:03:11;51.10;;;21.55;;
46745;SDS011;32493;50.514;9.678;2022-11-20T01:05:16;45.35;;;20.20;;
46745;SDS011;32493;50.514;9.678;2022-11-20T01:07:21;46.50;;;20.20;;
46745;SDS011;32493;50.514;9.678;2022-11-20T01:09:27;49.47;;;21.20;;
46745;SDS011;32493;50.514;9.678;2022-11-20T01:11:33;46.83;;;20.27;;
46745;SDS011;32493;50.514;9.678;2022-11-20T01:13:42;47.60;;;22.13;;
46745;SDS011;32493;50.514;9.678;2022-11-20T01:15:48;46.85;;;20.48;;
46745;SDS011;32493;50.514;9.678;2022-11-20T01:17:56;46.97;;;20.15;;
46745;SDS011;32493;50.514;9.678;2022-11-20T01:20:01;46.38;;;20.42;;
46745;SDS011;32493;50.514;9.678;2022-11-20T01:22:07;48.67;;;21.70;;
46745;SDS011;32493;50.514;9.678;2022-11-20T01:24:13;48.58;;;21.08;;
46745;SDS011;32493;50.514;9.678;2022-11-20T01:26:21;49.15;;;21.35;;
46745;SDS011;32493;50.514;9.678;2022-11-20T01:28:29;46.15;;;21.13;;
46745;SDS011;32493;50.514;9.678;2022-11-20T01:30:35;51.72;;;21.17;;
46745;SDS011;32493;50.514;9.678;2022-11-20T01:32:40;52.53;;;23.17;;
46745;SDS011;32493;50.514;9.678;2022-11-20T01:34:48;49.03;;;21.50;;
46745;SDS011;32493;50.514;9.678;2022-11-20T01:38:59;49.17;;;21.08;;
46745;SDS011;32493;50.514;9.678;2022-11-20T01:41:08;51.65;;;21.98;;
46745;SDS011;32493;50.514;9.678;2022-11-20T01:48:17;48.65;;;21.05;;
46745;SDS011;32493;50.514;9.678;2022-11-20T01:50:28;50.95;;;22.60;;
46745;SDS011;32493;50.514;9.678;2022-11-20T01:52:36;50.55;;;21.25;;
46745;SDS011;32493;50.514;9.678;2022-11-20T01:54:47;53.20;;;20.75;;
46745;SDS011;32493;50.514;9.678;2022-11-20T01:56:57;54.92;;;21.52;;
46745;SDS011;32493;50.514;9.678;2022-11-20T01:59:04;55.80;;;22.08;;
46745;SDS011;32493;50.514;9.678;2022-11-20T02:01:12;49.30;;;19.65;;
46745;SDS011;32493;50.514;9.678;2022-11-20T02:03:18;50.50;;;21.10;;
46745;SDS011;32493;50.514;9.678;2022-11-20T02:05:28;50.50;;;20.92;;
46745;SDS011;32493;50.514;9.678;2022-11-20T02:07:39;49.28;;;19.80;;
46745;SDS011;32493;50.514;9.678;2022-11-20T02:09:45;49.75;;;20.58;;
46745;SDS011;32493;50.514;9.678;2022-11-20T02:11:50;51.20;;;21.17;;
46745;SDS011;32493;50.514;9.678;2022-11-20T02:13:56;45.85;;;20.27;;
46745;SDS011;32493;50.514;9.678;2022-11-20T02:15:59;51.80;;;21.00;;
46745;SDS011;32493;50.514;9.678;2022-11-20T02:18:05;46.38;;;20.35;;
46745;SDS011;32493;50.514;9.678;2022-11-20T02:20:11;45.95;;;19.65;;
46745;SDS011;32493;50.514;9.678;2022-11-20T02:22:21;46.90;;;21.15;;
46745;SDS011;32493;50.514;9.678;2022-11-20T02:24:35;49.95;;;20.60;;
46745;SDS011;32493;50.514;9.678;2022-11-20T02:26:43;49.20;;;20.83;;
46745;SDS011;32493;50.514;9.678;2022-11-20T02:28:54;50.67;;;21.58;;
46745;SDS011;32493;50.514;9.678;2022-11-20T02:31:00;55.72;;;21.58;;
46745;SDS011;32493;50.514;9.678;2022-11-20T02:33:06;45.95;;;20.45;;
46745;SDS011;32493;50.514;9.678;2022-11-20T02:37:47;48.58;;;21.35;;
46745;SDS011;32493;50.514;9.678;2022-11-20T02:40:00;42.03;;;19.30;;
46745;SDS011;32493;50.514;9.678;2022-11-20T02:42:06;48.15;;;20.60;;
46745;SDS011;32493;50.514;9.678;2022-11-20T02:44:11;46.25;;;20.95;;
46745;SDS011;32493;50.514;9.678;2022-11-20T02:46:16;46.67;;;20.55;;
46745;SDS011;32493;50.514;9.678;2022-11-20T02:48:22;47.47;;;20.98;;
46745;SDS011;32493;50.514;9.678;2022-11-20T02:50:32;50.72;;;21.70;;
46745;SDS011;32493;50.514;9.678;2022-11-20T02:52:41;46.45;;;20.55;;
46745;SDS011;32493;50.514;9.678;2022-11-20T02:54:46;46.95;;;20.73;;
46745;SDS011;32493;50.514;9.678;2022-11-20T02:56:54;46.67;;;20.13;;
46745;SDS011;32493;50.514;9.678;2022-11-20T03:01:06;46.13;;;18.70;;
46745;SDS011;32493;50.514;9.678;2022-11-20T03:03:11;48.58;;;20.45;;
46745;SDS011;32493;50.514;9.678;2022-11-20T03:05:17;45.33;;;18.95;;
46745;SDS011;32493;50.514;9.678;2022-11-20T03:07:23;46.40;;;20.35;;
46745;SDS011;32493;50.514;9.678;2022-11-20T03:09:28;46.65;;;20.27;;
46745;SDS011;32493;50.514;9.678;2022-11-20T03:11:33;45.45;;;19.48;;
46745;SDS011;32493;50.514;9.678;2022-11-20T03:13:41;47.30;;;19.45;;
46745;SDS011;32493;50.514;9.678;2022-11-20T03:15:47;46.22;;;18.02;;
46745;SDS011;32493;50.514;9.678;2022-11-20T03:17:53;43.83;;;20.27;;
46745;SDS011;32493;50.514;9.678;2022-11-20T03:19:59;48.42;;;19.17;;
46745;SDS011;32493;50.514;9.678;2022-11-20T03:22:04;49.22;;;20.63;;
46745;SDS011;32493;50.514;9.678;2022-11-20T03:24:09;48.17;;;20.10;;
46745;SDS011;32493;50.514;9.678;2022-11-20T03:26:16;49.15;;;19.85;;
46745;SDS011;32493;50.514;9.678;2022-11-20T03:28:23;44.95;;;20.38;;
46745;SDS011;32493;50.514;9.678;2022-11-20T03:30:31;49.97;;;21.38;;
46745;SDS011;32493;50.514;9.678;2022-11-20T03:32:37;45.03;;;20.60;;
46745;SDS011;32493;50.514;9.678;2022-11-20T03:34:42;47.13;;;20.30;;
46745;SDS011;32493;50.514;9.678;2022-11-20T03:36:47;47.10;;;19.75;;
46745;SDS011;32493;50.514;9.678;2022-11-20T03:38:53;44.00;;;19.45;;
46745;SDS011;32493;50.514;9.678;2022-11-20T03:41:01;46.65;;;21.55;;
46745;SDS011;32493;50.514;9.678;2022-11-20T03:43:09;47.20;;;20.20;;
46745;SDS011;32493;50.514;9.678;2022-11-20T03:45:14;43.95;;;19.90;;
46745;SDS011;32493;50.514;9.678;2022-11-20T03:47:24;45.25;;;20.98;;
46745;SDS011;32493;50.514;9.678;2022-11-20T03:49:30;46.55;;;20.70;;
46745;SDS011;32493;50.514;9.678;2022-11-20T03:51:35;46.15;;;20.13;;
46745;SDS011;32493;50.514;9.678;2022-11-20T03:53:42;47.92;;;19.95;;
46745;SDS011;32493;50.514;9.678;2022-11-20T03:55:50;47.33;;;20.55;;
46745;SDS011;32493;50.514;9.678;2022-11-20T03:57:55;48.47;;;20.73;;
46745;SDS011;32493;50.514;9.678;2022-11-20T04:00:01;50.00;;;20.83;;
46745;SDS011;32493;50.514;9.678;2022-11-20T04:02:07;48.13;;;21.48;;
46745;SDS011;32493;50.514;9.678;2022-11-20T04:04:15;52.03;;;21.33;;
46745;SDS011;32493;50.514;9.678;2022-11-20T04:08:27;48.55;;;21.17;;
46745;SDS011;32493;50.514;9.678;2022-11-20T04:10:34;49.63;;;20.77;;
46745;SDS011;32493;50.514;9.678;2022-11-20T04:12:39;48.70;;;21.48;;
46745;SDS011;32493;50.514;9.678;2022-11-20T04:14:44;44.60;;;19.45;;
46745;SDS011;32493;50.514;9.678;2022-11-20T04:16:49;45.25;;;20.15;;
46745;SDS011;32493;50.514;9.678;2022-11-20T04:18:55;44.15;;;18.92;;
46745;SDS011;32493;50.514;9.678;2022-11-20T04:21:06;39.78;;;18.80;;
46745;SDS011;32493;50.514;9.678;2022-11-20T04:23:11;44.05;;;19.20;;
46745;SDS011;32493;50.514;9.678;2022-11-20T04:25:17;43.95;;;19.10;;
46745;SDS011;32493;50.514;9.678;2022-11-20T04:27:22;38.75;;;18.38;;
46745;SDS011;32493;50.514;9.678;2022-11-20T04:29:27;38.38;;;17.73;;
46745;SDS011;32493;50.514;9.678;2022-11-20T04:31:33;39.25;;;17.58;;
46745;SDS011;32493;50.514;9.678;2022-11-20T04:33:39;38.05;;;17.85;;
46745;SDS011;32493;50.514;9.678;2022-11-20T04:35:44;36.78;;;17.60;;
46745;SDS011;32493;50.514;9.678;2022-11-20T04:37:54;40.83;;;19.00;;
46745;SDS011;32493;50.514;9.678;2022-11-20T04:42:04;35.45;;;16.10;;
46745;SDS011;32493;50.514;9.678;2022-11-20T04:44:22;35.33;;;17.17;;
46745;SDS011;32493;50.514;9.678;2022-11-20T04:46:28;37.10;;;16.65;;
46745;SDS011;32493;50.514;9.678;2022-11-20T04:48:34;40.25;;;17.92;;
46745;SDS011;32493;50.514;9.678;2022-11-20T04:50:40;36.15;;;16.02;;
46745;SDS011;32493;50.514;9.678;2022-11-20T04:52:45;37.25;;;16.40;;
46745;SDS011;32493;50.514;9.678;2022-11-20T04:54:53;39.08;;;17.38;;
46745;SDS011;32493;50.514;9.678;2022-11-20T04:56:58;36.13;;;17.05;;
46745;SDS011;32493;50.514;9.678;2022-11-20T04:59:03;39.15;;;17.52;;
46745;SDS011;32493;50.514;9.678;2022-11-20T05:01:10;39.28;;;17.55;;
46745;SDS011;32493;50.514;9.678;2022-11-20T05:05:22;34.20;;;16.70;;
46745;SDS011;32493;50.514;9.678;2022-11-20T05:07:27;32.78;;;15.80;;
46745;SDS011;32493;50.514;9.678;2022-11-20T05:09:32;38.20;;;17.17;;
46745;SDS011;32493;50.514;9.678;2022-11-20T05:11:40;36.20;;;16.42;;
46745;SDS011;32493;50.514;9.678;2022-11-20T05:13:51;36.30;;;16.65;;
46745;SDS011;32493;50.514;9.678;2022-11-20T05:16:00;34.20;;;16.42;;
46745;SDS011;32493;50.514;9.678;2022-11-20T05:18:07;33.80;;;15.75;;
46745;SDS011;32493;50.514;9.678;2022-11-20T05:20:12;35.35;;;16.27;;
46745;SDS011;32493;50.514;9.678;2022-11-20T05:22:18;34.88;;;15.63;;
46745;SDS011;32493;50.514;9.678;2022-11-20T05:24:23;31.70;;;15.80;;
46745;SDS011;32493;50.514;9.678;2022-11-20T05:26:29;32.67;;;16.45;;
46745;SDS011;32493;50.514;9.678;2022-11-20T05:28:37;38.03;;;17.00;;
46745;SDS011;32493;50.514;9.678;2022-11-20T05:30:42;36.60;;;16.45;;
46745;SDS011;32493;50.514;9.678;2022-11-20T05:32:48;38.13;;;16.90;;
46745;SDS011;32493;50.514;9.678;2022-11-20T05:34:53;31.90;;;15.80;;
46745;SDS011;32493;50.514;9.678;2022-11-20T05:36:58;37.63;;;17.25;;
46745;SDS011;32493;50.514;9.678;2022-11-20T05:39:03;37.70;;;16.60;;
46745;SDS011;32493;50.514;9.678;2022-11-20T05:41:10;35.95;;;16.25;;
46745;SDS011;32493;50.514;9.678;2022-11-20T05:43:17;35.30;;;16.65;;
46745;SDS011;32493;50.514;9.678;2022-11-20T05:45:25;36.22;;;16.90;;
46745;SDS011;32493;50.514;9.678;2022-11-20T05:49:37;37.42;;;16.25;;
46745;SDS011;32493;50.514;9.678;2022-11-20T05:51:42;37.58;;;16.58;;
46745;SDS011;32493;50.514;9.678;2022-11-20T05:53:48;37.70;;;16.40;;
46745;SDS011;32493;50.514;9.678;2022-11-20T05:55:56;34.95;;;16.58;;
46745;SDS011;32493;50.514;9.678;2022-11-20T05:58:02;39.05;;;18.23;;
46745;SDS011;32493;50.514;9.678;2022-11-20T06:00:08;37.90;;;18.13;;
46745;SDS011;32493;50.514;9.678;2022-11-20T06:02:17;37.40;;;18.13;;
46745;SDS011;32493;50.514;9.678;2022-11-20T06:06:27;37.67;;;16.75;;
46745;SDS011;32493;50.514;9.678;2022-11-20T06:08:33;43.00;;;19.17;;
46745;SDS011;32493;50.514;9.678;2022-11-20T06:10:39;39.47;;;18.25;;
46745;SDS011;32493;50.514;9.678;2022-11-20T06:12:44;41.17;;;19.35;;
46745;SDS011;32493;50.514;9.678;2022-11-20T06:14:49;41.33;;;19.35;;
46745;SDS011;32493;50.514;9.678;2022-11-20T06:16:54;40.70;;;18.92;;
46745;SDS011;32493;50.514;9.678;2022-11-20T06:19:02;38.65;;;17.77;;
46745;SDS011;32493;50.514;9.678;2022-11-20T06:21:08;38.67;;;18.52;;
46745;SDS011;32493;50.514;9.678;2022-11-20T06:25:20;43.17;;;18.83;;
46745;SDS011;32493;50.514;9.678;2022-11-20T06:27:26;41.08;;;19.00;;
46745;SDS011;32493;50.514;9.678;2022-11-20T06:29:31;42.90;;;19.42;;
46745;SDS011;32493;50.514;9.678;2022-11-20T06:31:37;43.97;;;19.40;;
46745;SDS011;32493;50.514;9.678;2022-11-20T06:33:44;43.30;;;19.03;;
46745;SDS011;32493;50.514;9.678;2022-11-20T06:35:52;41.58;;;18.80;;
46745;SDS011;32493;50.514;9.678;2022-11-20T06:38:07;44.40;;;20.20;;
46745;SDS011;32493;50.514;9.678;2022-11-20T06:40:13;45.45;;;20.90;;
46745;SDS011;32493;50.514;9.678;2022-11-20T06:42:18;41.97;;;19.60;;
46745;SDS011;32493;50.514;9.678;2022-11-20T06:44:23;48.47;;;20.48;;
46745;SDS011;32493;50.514;9.678;2022-11-20T06:46:29;42.50;;;20.35;;
46745;SDS011;32493;50.514;9.678;2022-11-20T06:48:34;43.53;;;20.42;;
46745;SDS011;32493;50.514;9.678;2022-11-20T06:50:40;45.50;;;20.85;;
46745;SDS011;32493;50.514;9.678;2022-11-20T06:52:47;45.28;;;20.52;;
46745;SDS011;32493;50.514;9.678;2022-11-20T06:56:57;44.67;;;18.75;;
46745;SDS011;32493;50.514;9.678;2022-11-20T06:59:06;41.80;;;19.75;;
46745;SDS011;32493;50.514;9.678;2022-11-20T07:01:13;42.70;;;18.75;;
46745;SDS011;32493;50.514;9.678;2022-11-20T07:03:21;43.55;;;19.38;;
46745;SDS011;32493;50.514;9.678;2022-11-20T07:05:26;51.90;;;20.10;;
46745;SDS011;32493;50.514;9.678;2022-11-20T07:07:32;45.28;;;20.02;;
46745;SDS011;32493;50.514;9.678;2022-11-20T07:09:39;44.30;;;18.88;;
46745;SDS011;32493;50.514;9.678;2022-11-20T07:13:49;39.67;;;18.35;;
46745;SDS011;32493;50.514;9.678;2022-11-20T07:15:55;46.35;;;21.00;;
46745;SDS011;32493;50.514;9.678;2022-11-20T07:18:05;44.40;;;19.48;;
46745;SDS011;32493;50.514;9.678;2022-11-20T07:20:11;42.67;;;19.75;;
46745;SDS011;32493;50.514;9.678;2022-11-20T07:22:17;41.88;;;19.80;;
46745;SDS011;32493;50.514;9.678;2022-11-20T07:24:23;42.10;;;19.50;;
46745;SDS011;32493;50.514;9.678;2022-11-20T07:26:30;45.90;;;21.30;;
46745;SDS011;32493;50.514;9.678;2022-11-20T07:28:36;46.95;;;21.63;;
46745;SDS011;32493;50.514;9.678;2022-11-20T07:30:42;45.47;;;20.92;;
46745;SDS011;32493;50.514;9.678;2022-11-20T07:32:53;47.63;;;20.85;;
46745;SDS011;32493;50.514;9.678;2022-11-20T07:35:00;45.00;;;20.13;;
46745;SDS011;32493;50.514;9.678;2022-11-20T07:37:05;46.05;;;22.08;;
46745;SDS011;32493;50.514;9.678;2022-11-20T07:39:11;45.42;;;20.20;;
46745;SDS011;32493;50.514;9.678;2022-11-20T07:41:16;47.53;;;22.27;;
46745;SDS011;32493;50.514;9.678;2022-11-20T07:43:24;53.28;;;22.05;;
46745;SDS011;32493;50.514;9.678;2022-11-20T07:45:29;45.22;;;20.63;;
46745;SDS011;32493;50.514;9.678;2022-11-20T07:47:36;47.38;;;20.67;;
46745;SDS011;32493;50.514;9.678;2022-11-20T07:49:42;53.55;;;22.55;;
46745;SDS011;32493;50.514;9.678;2022-11-20T07:51:49;48.08;;;21.00;;
46745;SDS011;32493;50.514;9.678;2022-11-20T07:53:55;46.38;;;20.70;;
46745;SDS011;32493;50.514;9.678;2022-11-20T07:56:00;46.45;;;21.70;;
46745;SDS011;32493;50.514;9.678;2022-11-20T07:58:06;44.38;;;21.52;;
46745;SDS011;32493;50.514;9.678;2022-11-20T08:00:16;46.50;;;21.55;;
46745;SDS011;32493;50.514;9.678;2022-11-20T08:02:22;51.38;;;22.65;;
46745;SDS011;32493;50.514;9.678;2022-11-20T08:04:28;48.75;;;22.10;;
46745;SDS011;32493;50.514;9.678;2022-11-20T08:06:34;49.70;;;22.52;;
46745;SDS011;32493;50.514;9.678;2022-11-20T08:08:40;50.25;;;22.10;;
46745;SDS011;32493;50.514;9.678;2022-11-20T08:10:45;49.92;;;22.67;;
46745;SDS011;32493;50.514;9.678;2022-11-20T08:12:52;49.33;;;22.30;;
46745;SDS011;32493;50.514;9.678;2022-11-20T08:15:10;45.10;;;20.63;;
46745;SDS011;32493;50.514;9.678;2022-11-20T08:17:18;44.35;;;20.98;;
46745;SDS011;32493;50.514;9.678;2022-11-20T08:21:29;47.50;;;20.88;;
46745;SDS011;32493;50.514;9.678;2022-11-20T08:23:39;47.50;;;21.38;;
46745;SDS011;32493;50.514;9.678;2022-11-20T08:25:48;43.92;;;19.40;;
46745;SDS011;32493;50.514;9.678;2022-11-20T08:27:56;45.83;;;21.17;;
46745;SDS011;32493;50.514;9.678;2022-11-20T08:30:13;41.15;;;19.45;;
46745;SDS011;32493;50.514;9.678;2022-11-20T08:32:22;38.65;;;19.33;;
46745;SDS011;32493;50.514;9.678;2022-11-20T08:34:28;49.42;;;21.38;;
46745;SDS011;32493;50.514;9.678;2022-11-20T08:36:34;43.35;;;20.38;;
46745;SDS011;32493;50.514;9.678;2022-11-20T08:38:40;42.63;;;19.77;;
46745;SDS011;32493;50.514;9.678;2022-11-20T08:40:45;43.22;;;19.80;;
46745;SDS011;32493;50.514;9.678;2022-11-20T08:43:10;44.33;;;19.98;;
46745;SDS011;32493;50.514;9.678;2022-11-20T08:45:16;48.15;;;20.83;;
46745;SDS011;32493;50.514;9.678;2022-11-20T08:47:25;53.43;;;22.40;;
46745;SDS011;32493;50.514;9.678;2022-11-20T08:49:31;51.05;;;22.23;;
46745;SDS011;32493;50.514;9.678;2022-11-20T08:51:37;50.22;;;21.58;;
46745;SDS011;32493;50.514;9.678;2022-11-20T08:53:44;50.35;;;20.75;;
46745;SDS011;32493;50.514;9.678;2022-11-20T08:55:50;52.75;;;21.30;;
46745;SDS011;32493;50.514;9.678;2022-11-20T08:57:56;50.95;;;20.50;;
46745;SDS011;32493;50.514;9.678;2022-11-20T09:00:03;53.08;;;21.70;;
46745;SDS011;32493;50.514;9.678;2022-11-20T09:02:11;54.22;;;21.15;;
46745;SDS011;32493;50.514;9.678;2022-11-20T09:04:19;52.28;;;21.42;;
46745;SDS011;32493;50.514;9.678;2022-11-20T09:06:32;52.10;;;21.10;;
46745;SDS011;32493;50.514;9.678;2022-11-20T09:08:38;55.53;;;21.80;;
46745;SDS011;32493;50.514;9.678;2022-11-20T09:10:44;51.60;;;21.92;;
46745;SDS011;32493;50.514;9.678;2022-11-20T09:12:49;50.65;;;21.05;;
46745;SDS011;32493;50.514;9.678;2022-11-20T09:14:56;53.72;;;21.88;;
46745;SDS011;32493;50.514;9.678;2022-11-20T09:17:02;50.17;;;21.40;;
46745;SDS011;32493;50.514;9.678;2022-11-20T09:19:09;50.65;;;22.25;;
46745;SDS011;32493;50.514;9.678;2022-11-20T09:21:37;51.58;;;20.85;;
46745;SDS011;32493;50.514;9.678;2022-11-20T09:23:43;49.42;;;21.67;;
46745;SDS011;32493;50.514;9.678;2022-11-20T09:25:49;47.83;;;20.77;;
46745;SDS011;32493;50.514;9.678;2022-11-20T09:30:03;43.22;;;17.17;;
46745;SDS011;32493;50.514;9.678;2022-11-20T09:32:10;41.55;;;18.23;;
46745;SDS011;32493;50.514;9.678;2022-11-20T09:34:16;47.92;;;19.40;;
46745;SDS011;32493;50.514;9.678;2022-11-20T09:36:21;43.38;;;19.10;;
46745;SDS011;32493;50.514;9.678;2022-11-20T09:38:31;50.00;;;19.10;;
46745;SDS011;32493;50.514;9.678;2022-11-20T09:40:37;45.83;;;18.15;;
46745;SDS011;32493;50.514;9.678;2022-11-20T09:42:54;47.88;;;18.23;;
46745;SDS011;32493;50.514;9.678;2022-11-20T09:45:12;45.75;;;17.92;;
46745;SDS011;32493;50.514;9.678;2022-11-20T09:47:32;47.20;;;18.67;;
46745;SDS011;32493;50.514;9.678;2022-11-20T09:52:09;46.80;;;17.98;;
46745;SDS011;32493;50.514;9.678;2022-11-20T09:54:29;48.25;;;17.42;;
46745;SDS011;32493;50.514;9.678;2022-11-20T09:56:39;41.22;;;17.58;;
46745;SDS011;32493;50.514;9.678;2022-11-20T09:58:49;40.65;;;16.85;;
46745;SDS011;32493;50.514;9.678;2022-11-20T10:01:00;41.95;;;18.20;;
46745;SDS011;32493;50.514;9.678;2022-11-20T10:03:14;42.70;;;18.30;;
46745;SDS011;32493;50.514;9.678;2022-11-20T10:05:27;48.50;;;19.02;;
46745;SDS011;32493;50.514;9.678;2022-11-20T10:07:41;49.72;;;20.27;;
46745;SDS011;32493;50.514;9.678;2022-11-20T10:09:59;47.45;;;20.98;;
46745;SDS011;32493;50.514;9.678;2022-11-20T10:12:07;54.88;;;20.70;;
46745;SDS011;32493;50.514;9.678;2022-11-20T10:14:23;51.00;;;21.92;;
46745;SDS011;32493;50.514;9.678;2022-11-20T10:16:41;48.58;;;19.58;;
46745;SDS011;32493;50.514;9.678;2022-11-20T10:18:58;46.05;;;19.52;;
46745;SDS011;32493;50.514;9.678;2022-11-20T10:21:16;44.97;;;19.50;;
46745;SDS011;32493;50.514;9.678;2022-11-20T10:26:16;44.97;;;17.25;;
46745;SDS011;32493;50.514;9.678;2022-11-20T10:28:36;40.83;;;16.90;;
46745;SDS011;32493;50.514;9.678;2022-11-20T10:31:03;37.95;;;17.60;;
46745;SDS011;32493;50.514;9.678;2022-11-20T10:33:16;37.58;;;15.68;;
46745;SDS011;32493;50.514;9.678;2022-11-20T10:35:27;36.35;;;16.33;;
46745;SDS011;32493;50.514;9.678;2022-11-20T10:37:40;35.55;;;17.27;;
46745;SDS011;32493;50.514;9.678;2022-11-20T10:39:54;32.85;;;14.70;;
46745;SDS011;32493;50.514;9.678;2022-11-20T10:42:10;33.58;;;15.65;;
46745;SDS011;32493;50.514;9.678;2022-11-20T10:44:21;28.77;;;13.95;;
46745;SDS011;32493;50.514;9.678;2022-11-20T10:46:44;33.45;;;15.77;;
46745;SDS011;32493;50.514;9.678;2022-11-20T10:48:50;33.90;;;14.73;;
46745;SDS011;32493;50.514;9.678;2022-11-20T10:50:59;25.85;;;11.68;;
46745;SDS011;32493;50.514;9.678;2022-11-20T10:53:19;26.30;;;12.40;;
46745;SDS011;32493;50.514;9.678;2022-11-20T10:55:53;26.10;;;11.98;;
46745;SDS011;32493;50.514;9.678;2022-11-20T10:58:08;28.25;;;13.73;;
46745;SDS011;32493;50.514;9.678;2022-11-20T11:00:18;24.60;;;11.55;;
46745;SDS011;32493;50.514;9.678;2022-11-20T11:02:24;23.10;;;11.77;;
46745;SDS011;32493;50.514;9.678;2022-11-20T11:04:40;20.20;;;9.27;;
46745;SDS011;32493;50.514;9.678;2022-11-20T11:06:50;20.55;;;10.25;;
46745;SDS011;32493;50.514;9.678;2022-11-20T11:09:00;22.27;;;11.07;;
46745;SDS011;32493;50.514;9.678;2022-11-20T11:11:18;22.73;;;9.85;;
46745;SDS011;32493;50.514;9.678;2022-11-20T11:13:30;23.83;;;11.52;;
46745;SDS011;32493;50.514;9.678;2022-11-20T11:17:46;24.15;;;11.38;;
46745;SDS011;32493;50.514;9.678;2022-11-20T11:19:59;19.38;;;11.00;;
46745;SDS011;32493;50.514;9.678;2022-11-20T11:22:09;22.27;;;10.75;;
46745;SDS011;32493;50.514;9.678;2022-11-20T11:24:21;23.52;;;10.27;;
46745;SDS011;32493;50.514;9.678;2022-11-20T11:26:50;23.20;;;11.15;;
46745;SDS011;32493;50.514;9.678;2022-11-20T11:29:17;23.88;;;11.30;;
46745;SDS011;32493;50.514;9.678;2022-11-20T11:31:23;24.02;;;11.65;;
46745;SDS011;32493;50.514;9.678;2022-11-20T11:33:31;23.83;;;11.45;;
46745;SDS011;32493;50.514;9.678;2022-11-20T11:35:43;20.52;;;10.98;;
46745;SDS011;32493;50.514;9.678;2022-11-20T11:37:53;25.23;;;12.23;;
46745;SDS011;32493;50.514;9.678;2022-11-20T11:40:11;24.85;;;11.73;;
46745;SDS011;32493;50.514;9.678;2022-11-20T11:42:27;27.20;;;11.93;;
46745;SDS011;32493;50.514;9.678;2022-11-20T11:44:35;34.08;;;16.00;;
46745;SDS011;32493;50.514;9.678;2022-11-20T11:46:54;37.78;;;18.27;;
46745;SDS011;32493;50.514;9.678;2022-11-20T11:49:01;38.00;;;18.48;;
46745;SDS011;32493;50.514;9.678;2022-11-20T11:51:20;43.00;;;19.15;;
46745;SDS011;32493;50.514;9.678;2022-11-20T11:53:25;42.75;;;19.70;;
46745;SDS011;32493;50.514;9.678;2022-11-20T11:55:35;42.17;;;19.13;;
46745;SDS011;32493;50.514;9.678;2022-11-20T11:57:47;32.55;;;16.30;;
46745;SDS011;32493;50.514;9.678;2022-11-20T12:00:13;37.53;;;17.33;;
46745;SDS011;32493;50.514;9.678;2022-11-20T12:02:27;81.85;;;32.83;;
46745;SDS011;32493;50.514;9.678;2022-11-20T12:04:54;38.97;;;17.27;;
46745;SDS011;32493;50.514;9.678;2022-11-20T12:07:07;37.45;;;17.77;;
46745;SDS011;32493;50.514;9.678;2022-11-20T12:09:42;47.20;;;23.17;;
46745;SDS011;32493;50.514;9.678;2022-11-20T12:11:54;30.85;;;14.85;;
46745;SDS011;32493;50.514;9.678;2022-11-20T12:14:09;29.45;;;13.02;;
46745;SDS011;32493;50.514;9.678;2022-11-20T12:16:30;29.27;;;13.15;;
46745;SDS011;32493;50.514;9.678;2022-11-20T12:18:40;31.58;;;14.18;;
46745;SDS011;32493;50.514;9.678;2022-11-20T12:20:51;28.45;;;13.77;;
46745;SDS011;32493;50.514;9.678;2022-11-20T12:23:15;28.58;;;13.60;;
46745;SDS011;32493;50.514;9.678;2022-11-20T12:25:32;26.45;;;12.93;;
46745;SDS011;32493;50.514;9.678;2022-11-20T12:27:49;29.48;;;13.50;;
46745;SDS011;32493;50.514;9.678;2022-11-20T12:30:38;29.42;;;14.55;;
46745;SDS011;32493;50.514;9.678;2022-11-20T12:33:15;29.20;;;13.65;;
46745;SDS011;32493;50.514;9.678;2022-11-20T12:36:01;25.13;;;12.35;;
46745;SDS011;32493;50.514;9.678;2022-11-20T12:38:46;26.67;;;13.70;;
46745;SDS011;32493;50.514;9.678;2022-11-20T12:41:10;22.45;;;11.30;;
46745;SDS011;32493;50.514;9.678;2022-11-20T12:43:41;23.48;;;12.25;;
46745;SDS011;32493;50.514;9.678;2022-11-20T12:46:25;23.27;;;12.60;;
46745;SDS011;32493;50.514;9.678;2022-11-20T12:48:46;25.52;;;12.80;;
46745;SDS011;32493;50.514;9.678;2022-11-20T12:51:48;24.65;;;12.32;;
46745;SDS011;32493;50.514;9.678;2022-11-20T12:56:50;26.20;;;13.10;;
46745;SDS011;32493;50.514;9.678;2022-11-20T12:59:14;30.13;;;14.45;;
46745;SDS011;32493;50.514;9.678;2022-11-20T13:01:47;27.30;;;13.20;;
46745;SDS011;32493;50.514;9.678;2022-11-20T13:04:08;21.60;;;11.98;;
46745;SDS011;32493;50.514;9.678;2022-11-20T13:06:44;23.73;;;11.75;;
46745;SDS011;32493;50.514;9.678;2022-11-20T13:08:56;23.90;;;12.27;;
46745;SDS011;32493;50.514;9.678;2022-11-20T13:11:12;27.08;;;12.77;;
46745;SDS011;32493;50.514;9.678;2022-11-20T13:13:35;19.48;;;10.38;;
46745;SDS011;32493;50.514;9.678;2022-11-20T13:16:03;20.60;;;10.18;;
46745;SDS011;32493;50.514;9.678;2022-11-20T13:18:29;63.05;;;23.67;;
46745;SDS011;32493;50.514;9.678;2022-11-20T13:20:58;20.77;;;10.48;;
46745;SDS011;32493;50.514;9.678;2022-11-20T13:23:07;15.85;;;8.23;;